sensor_id;sensor_type;location;lat;lon;timestamp;temperature;humidity
75719;DHT22;64340;48.534;-3.036;2023-01-31T00:01:10;15.80;61.30
75719;DHT22;64340;48.534;-3.036;2023-01-31T00:03:37;15.80;61.20
75719;DHT22;64340;48.534;-3.036;2023-01-31T00:08:41;15.80;61.20
75719;DHT22;64340;48.534;-3.036;2023-01-31T00:11:07;15.80;61.30
75719;DHT22;64340;48.534;-3.036;2023-01-31T00:13:33;15.70;61.20
75719;DHT22;64340;48.534;-3.036;2023-01-31T00:15:59;15.70;61.30
75719;DHT22;64340;48.534;-3.036;2023-01-31T00:18:25;15.60;61.30
75719;DHT22;64340;48.534;-3.036;2023-01-31T00:20:51;15.60;61.30
75719;DHT22;64340;48.534;-3.036;2023-01-31T00:23:17;15.60;61.20
75719;DHT22;64340;48.534;-3.036;2023-01-31T00:25:43;15.60;61.20
75719;DHT22;64340;48.534;-3.036;2023-01-31T00:28:08;15.60;61.20
75719;DHT22;64340;48.534;-3.036;2023-01-31T00:30:34;15.60;61.10
75719;DHT22;64340;48.534;-3.036;2023-01-31T00:33:00;15.60;61.10
75719;DHT22;64340;48.534;-3.036;2023-01-31T00:35:26;15.60;61.10
75719;DHT22;64340;48.534;-3.036;2023-01-31T00:37:51;15.60;61.10
75719;DHT22;64340;48.534;-3.036;2023-01-31T00:40:17;15.60;61.10
75719;DHT22;64340;48.534;-3.036;2023-01-31T00:42:43;15.60;61.10
75719;DHT22;64340;48.534;-3.036;2023-01-31T00:45:09;15.50;61.10
75719;DHT22;64340;48.534;-3.036;2023-01-31T00:47:35;15.50;61.10
75719;DHT22;64340;48.534;-3.036;2023-01-31T00:50:01;15.50;61.10
75719;DHT22;64340;48.534;-3.036;2023-01-31T00:52:26;15.50;61.10
75719;DHT22;64340;48.534;-3.036;2023-01-31T00:54:52;15.50;61.10
75719;DHT22;64340;48.534;-3.036;2023-01-31T00:57:18;15.50;61.00
75719;DHT22;64340;48.534;-3.036;2023-01-31T00:59:43;15.40;61.00
75719;DHT22;64340;48.534;-3.036;2023-01-31T01:02:09;15.40;61.00
75719;DHT22;64340;48.534;-3.036;2023-01-31T01:04:35;15.40;61.00
75719;DHT22;64340;48.534;-3.036;2023-01-31T01:07:01;15.40;61.00
75719;DHT22;64340;48.534;-3.036;2023-01-31T01:09:27;15.40;61.00
75719;DHT22;64340;48.534;-3.036;2023-01-31T01:11:53;15.40;61.00
75719;DHT22;64340;48.534;-3.036;2023-01-31T01:14:19;15.40;61.00
75719;DHT22;64340;48.534;-3.036;2023-01-31T01:16:44;15.30;60.90
75719;DHT22;64340;48.534;-3.036;2023-01-31T01:19:18;15.30;61.00
75719;DHT22;64340;48.534;-3.036;2023-01-31T01:21:44;15.30;61.00
75719;DHT22;64340;48.534;-3.036;2023-01-31T01:24:17;15.30;60.90
75719;DHT22;64340;48.534;-3.036;2023-01-31T01:26:43;15.30;60.90
75719;DHT22;64340;48.534;-3.036;2023-01-31T01:29:10;15.30;60.90
75719;DHT22;64340;48.534;-3.036;2023-01-31T01:31:38;15.20;60.90
75719;DHT22;64340;48.534;-3.036;2023-01-31T01:34:07;15.20;60.90
75719;DHT22;64340;48.534;-3.036;2023-01-31T01:36:36;15.20;60.90
75719;DHT22;64340;48.534;-3.036;2023-01-31T01:39:04;15.20;61.00
75719;DHT22;64340;48.534;-3.036;2023-01-31T01:41:31;15.20;61.00
75719;DHT22;64340;48.534;-3.036;2023-01-31T01:44:02;15.10;61.00
75719;DHT22;64340;48.534;-3.036;2023-01-31T01:51:41;15.10;61.00
75719;DHT22;64340;48.534;-3.036;2023-01-31T01:54:14;15.10;61.00
75719;DHT22;64340;48.534;-3.036;2023-01-31T01:56:44;15.10;61.00
75719;DHT22;64340;48.534;-3.036;2023-01-31T01:59:17;15.00;60.90
75719;DHT22;64340;48.534;-3.036;2023-01-31T02:01:45;15.00;61.00
75719;DHT22;64340;48.534;-3.036;2023-01-31T02:04:14;15.00;60.80
75719;DHT22;64340;48.534;-3.036;2023-01-31T02:06:42;15.00;60.90
75719;DHT22;64340;48.534;-3.036;2023-01-31T02:09:28;15.00;60.90
75719;DHT22;64340;48.534;-3.036;2023-01-31T02:11:57;15.00;60.90
75719;DHT22;64340;48.534;-3.036;2023-01-31T02:14:23;15.00;60.90
75719;DHT22;64340;48.534;-3.036;2023-01-31T02:16:50;15.00;60.90
75719;DHT22;64340;48.534;-3.036;2023-01-31T02:19:36;15.00;60.70
75719;DHT22;64340;48.534;-3.036;2023-01-31T02:22:32;15.00;60.90
75719;DHT22;64340;48.534;-3.036;2023-01-31T02:34:33;14.90;60.80
75719;DHT22;64340;48.534;-3.036;2023-01-31T02:39:52;14.90;60.80
75719;DHT22;64340;48.534;-3.036;2023-01-31T02:42:31;14.90;60.80
75719;DHT22;64340;48.534;-3.036;2023-01-31T02:45:12;14.80;60.80
75719;DHT22;64340;48.534;-3.036;2023-01-31T02:48:02;14.80;60.70
75719;DHT22;64340;48.534;-3.036;2023-01-31T02:51:11;14.80;60.70
75719;DHT22;64340;48.534;-3.036;2023-01-31T02:53:43;14.80;60.70
75719;DHT22;64340;48.534;-3.036;2023-01-31T02:59:05;14.80;60.70
75719;DHT22;64340;48.534;-3.036;2023-01-31T03:01:37;14.80;60.70
75719;DHT22;64340;48.534;-3.036;2023-01-31T03:04:09;14.70;60.70
75719;DHT22;64340;48.534;-3.036;2023-01-31T03:09:13;14.70;60.80
75719;DHT22;64340;48.534;-3.036;2023-01-31T03:14:27;14.70;60.70
75719;DHT22;64340;48.534;-3.036;2023-01-31T03:20:21;14.70;60.70
75719;DHT22;64340;48.534;-3.036;2023-01-31T03:22:50;14.70;60.70
75719;DHT22;64340;48.534;-3.036;2023-01-31T03:25:20;14.70;60.50
75719;DHT22;64340;48.534;-3.036;2023-01-31T03:27:51;14.70;60.60
75719;DHT22;64340;48.534;-3.036;2023-01-31T03:33:21;14.70;60.70
75719;DHT22;64340;48.534;-3.036;2023-01-31T03:36:03;14.60;60.60
75719;DHT22;64340;48.534;-3.036;2023-01-31T03:38:34;14.60;60.50
75719;DHT22;64340;48.534;-3.036;2023-01-31T03:41:17;14.60;60.60
75719;DHT22;64340;48.534;-3.036;2023-01-31T03:44:00;14.60;60.70
75719;DHT22;64340;48.534;-3.036;2023-01-31T03:46:35;14.60;60.60
75719;DHT22;64340;48.534;-3.036;2023-01-31T03:49:06;14.60;60.40
75719;DHT22;64340;48.534;-3.036;2023-01-31T03:51:36;14.60;60.60
75719;DHT22;64340;48.534;-3.036;2023-01-31T03:54:10;14.50;60.60
75719;DHT22;64340;48.534;-3.036;2023-01-31T03:57:02;14.50;60.70
75719;DHT22;64340;48.534;-3.036;2023-01-31T03:59:33;14.50;60.70
75719;DHT22;64340;48.534;-3.036;2023-01-31T04:02:03;14.50;60.70
75719;DHT22;64340;48.534;-3.036;2023-01-31T04:05:30;14.50;60.40
75719;DHT22;64340;48.534;-3.036;2023-01-31T04:07:25;14.50;60.50
75719;DHT22;64340;48.534;-3.036;2023-01-31T04:09:51;14.50;60.60
75719;DHT22;64340;48.534;-3.036;2023-01-31T04:12:17;14.50;60.50
75719;DHT22;64340;48.534;-3.036;2023-01-31T04:14:42;14.50;60.20
75719;DHT22;64340;48.534;-3.036;2023-01-31T04:17:08;14.50;60.40
75719;DHT22;64340;48.534;-3.036;2023-01-31T04:19:34;14.50;60.50
75719;DHT22;64340;48.534;-3.036;2023-01-31T04:22:00;14.50;60.50
75719;DHT22;64340;48.534;-3.036;2023-01-31T04:24:25;14.40;60.50
75719;DHT22;64340;48.534;-3.036;2023-01-31T04:26:51;14.40;60.50
75719;DHT22;64340;48.534;-3.036;2023-01-31T04:29:17;14.40;60.40
75719;DHT22;64340;48.534;-3.036;2023-01-31T04:31:43;14.40;60.40
75719;DHT22;64340;48.534;-3.036;2023-01-31T04:34:08;14.40;60.30
75719;DHT22;64340;48.534;-3.036;2023-01-31T04:36:34;14.40;60.60
75719;DHT22;64340;48.534;-3.036;2023-01-31T04:39:00;14.40;60.50
75719;DHT22;64340;48.534;-3.036;2023-01-31T04:41:26;14.40;60.60
75719;DHT22;64340;48.534;-3.036;2023-01-31T04:43:52;14.40;60.50
75719;DHT22;64340;48.534;-3.036;2023-01-31T04:46:17;14.40;60.40
75719;DHT22;64340;48.534;-3.036;2023-01-31T04:48:43;14.40;60.60
75719;DHT22;64340;48.534;-3.036;2023-01-31T04:51:09;14.40;60.50
75719;DHT22;64340;48.534;-3.036;2023-01-31T04:53:35;14.40;60.50
75719;DHT22;64340;48.534;-3.036;2023-01-31T04:56:01;14.30;60.60
75719;DHT22;64340;48.534;-3.036;2023-01-31T04:58:27;14.40;60.50
75719;DHT22;64340;48.534;-3.036;2023-01-31T05:00:53;14.40;60.50
75719;DHT22;64340;48.534;-3.036;2023-01-31T05:03:19;14.30;60.60
75719;DHT22;64340;48.534;-3.036;2023-01-31T05:05:47;14.30;60.50
75719;DHT22;64340;48.534;-3.036;2023-01-31T05:08:13;14.30;60.50
75719;DHT22;64340;48.534;-3.036;2023-01-31T05:10:39;14.30;60.60
75719;DHT22;64340;48.534;-3.036;2023-01-31T05:13:07;14.30;60.40
75719;DHT22;64340;48.534;-3.036;2023-01-31T05:15:33;14.30;60.50
75719;DHT22;64340;48.534;-3.036;2023-01-31T05:17:58;14.30;60.50
75719;DHT22;64340;48.534;-3.036;2023-01-31T05:20:32;14.30;60.60
75719;DHT22;64340;48.534;-3.036;2023-01-31T05:22:59;14.30;60.90
75719;DHT22;64340;48.534;-3.036;2023-01-31T05:25:25;14.30;61.20
75719;DHT22;64340;48.534;-3.036;2023-01-31T05:27:52;14.20;60.50
75719;DHT22;64340;48.534;-3.036;2023-01-31T05:30:18;14.30;61.00
75719;DHT22;64340;48.534;-3.036;2023-01-31T05:32:46;14.30;61.10
75719;DHT22;64340;48.534;-3.036;2023-01-31T05:35:13;14.30;61.40
75719;DHT22;64340;48.534;-3.036;2023-01-31T05:37:39;14.40;61.10
75719;DHT22;64340;48.534;-3.036;2023-01-31T05:40:12;14.40;61.20
75719;DHT22;64340;48.534;-3.036;2023-01-31T05:42:38;14.40;61.00
75719;DHT22;64340;48.534;-3.036;2023-01-31T05:45:05;14.40;60.80
75719;DHT22;64340;48.534;-3.036;2023-01-31T05:47:31;14.40;60.80
75719;DHT22;64340;48.534;-3.036;2023-01-31T05:49:57;14.40;60.50
75719;DHT22;64340;48.534;-3.036;2023-01-31T05:52:22;14.40;61.20
75719;DHT22;64340;48.534;-3.036;2023-01-31T05:54:48;14.40;61.90
75719;DHT22;64340;48.534;-3.036;2023-01-31T05:57:14;14.40;61.90
75719;DHT22;64340;48.534;-3.036;2023-01-31T05:59:40;14.40;61.80
75719;DHT22;64340;48.534;-3.036;2023-01-31T06:02:06;14.40;62.30
75719;DHT22;64340;48.534;-3.036;2023-01-31T06:04:33;14.40;62.40
75719;DHT22;64340;48.534;-3.036;2023-01-31T06:06:59;14.40;63.00
75719;DHT22;64340;48.534;-3.036;2023-01-31T06:09:25;14.40;64.10
75719;DHT22;64340;48.534;-3.036;2023-01-31T06:11:51;14.40;64.20
75719;DHT22;64340;48.534;-3.036;2023-01-31T06:14:16;14.40;65.90
75719;DHT22;64340;48.534;-3.036;2023-01-31T06:16:42;14.40;64.10
75719;DHT22;64340;48.534;-3.036;2023-01-31T06:19:08;14.40;65.50
75719;DHT22;64340;48.534;-3.036;2023-01-31T06:21:34;14.50;64.80
75719;DHT22;64340;48.534;-3.036;2023-01-31T06:24:00;14.50;63.70
75719;DHT22;64340;48.534;-3.036;2023-01-31T06:26:26;14.50;64.80
75719;DHT22;64340;48.534;-3.036;2023-01-31T06:28:52;14.40;65.30
75719;DHT22;64340;48.534;-3.036;2023-01-31T06:31:17;14.40;65.50
75719;DHT22;64340;48.534;-3.036;2023-01-31T06:33:43;14.40;65.40
75719;DHT22;64340;48.534;-3.036;2023-01-31T06:36:09;14.30;65.20
75719;DHT22;64340;48.534;-3.036;2023-01-31T06:38:35;14.30;65.40
75719;DHT22;64340;48.534;-3.036;2023-01-31T06:41:00;14.30;65.20
75719;DHT22;64340;48.534;-3.036;2023-01-31T06:43:26;14.30;65.70
75719;DHT22;64340;48.534;-3.036;2023-01-31T06:45:52;14.30;65.50
75719;DHT22;64340;48.534;-3.036;2023-01-31T06:48:18;14.20;65.30
75719;DHT22;64340;48.534;-3.036;2023-01-31T06:50:45;14.20;65.10
75719;DHT22;64340;48.534;-3.036;2023-01-31T06:53:11;14.30;65.20
75719;DHT22;64340;48.534;-3.036;2023-01-31T06:55:38;14.20;65.20
75719;DHT22;64340;48.534;-3.036;2023-01-31T06:58:03;14.20;65.30
75719;DHT22;64340;48.534;-3.036;2023-01-31T07:00:29;14.20;65.20
75719;DHT22;64340;48.534;-3.036;2023-01-31T07:02:55;14.20;64.90
75719;DHT22;64340;48.534;-3.036;2023-01-31T07:05:21;14.20;64.50
75719;DHT22;64340;48.534;-3.036;2023-01-31T07:07:47;14.20;65.00
75719;DHT22;64340;48.534;-3.036;2023-01-31T07:10:15;14.10;64.60
75719;DHT22;64340;48.534;-3.036;2023-01-31T07:12:41;14.10;64.70
75719;DHT22;64340;48.534;-3.036;2023-01-31T07:15:08;14.10;64.30
75719;DHT22;64340;48.534;-3.036;2023-01-31T07:17:34;14.10;64.50
75719;DHT22;64340;48.534;-3.036;2023-01-31T07:20:00;14.10;64.10
75719;DHT22;64340;48.534;-3.036;2023-01-31T07:22:25;14.10;64.30
75719;DHT22;64340;48.534;-3.036;2023-01-31T07:24:51;14.10;64.30
75719;DHT22;64340;48.534;-3.036;2023-01-31T07:27:17;14.10;64.30
75719;DHT22;64340;48.534;-3.036;2023-01-31T07:29:43;14.10;64.10
75719;DHT22;64340;48.534;-3.036;2023-01-31T07:32:09;14.00;64.20
75719;DHT22;64340;48.534;-3.036;2023-01-31T07:34:35;14.00;64.10
75719;DHT22;64340;48.534;-3.036;2023-01-31T07:37:01;14.00;64.00
75719;DHT22;64340;48.534;-3.036;2023-01-31T07:39:27;14.00;63.90
75719;DHT22;64340;48.534;-3.036;2023-01-31T07:41:53;14.00;63.90
75719;DHT22;64340;48.534;-3.036;2023-01-31T07:44:19;14.00;64.00
75719;DHT22;64340;48.534;-3.036;2023-01-31T07:46:45;14.00;63.90
75719;DHT22;64340;48.534;-3.036;2023-01-31T07:49:11;14.00;63.80
75719;DHT22;64340;48.534;-3.036;2023-01-31T07:51:38;14.00;64.00
75719;DHT22;64340;48.534;-3.036;2023-01-31T07:54:09;14.00;63.70
75719;DHT22;64340;48.534;-3.036;2023-01-31T07:56:35;14.00;63.70
75719;DHT22;64340;48.534;-3.036;2023-01-31T07:59:01;14.00;63.70
75719;DHT22;64340;48.534;-3.036;2023-01-31T08:01:27;13.90;63.50
75719;DHT22;64340;48.534;-3.036;2023-01-31T08:04:13;14.00;63.50
75719;DHT22;64340;48.534;-3.036;2023-01-31T08:06:40;13.90;63.40
75719;DHT22;64340;48.534;-3.036;2023-01-31T08:09:07;13.90;63.40
75719;DHT22;64340;48.534;-3.036;2023-01-31T08:11:33;13.90;63.40
75719;DHT22;64340;48.534;-3.036;2023-01-31T08:13:58;13.90;63.30
75719;DHT22;64340;48.534;-3.036;2023-01-31T08:16:24;13.90;63.40
75719;DHT22;64340;48.534;-3.036;2023-01-31T08:18:51;13.90;63.20
75719;DHT22;64340;48.534;-3.036;2023-01-31T08:21:18;13.90;63.00
75719;DHT22;64340;48.534;-3.036;2023-01-31T08:23:44;13.90;63.20
75719;DHT22;64340;48.534;-3.036;2023-01-31T08:26:15;13.90;63.10
75719;DHT22;64340;48.534;-3.036;2023-01-31T08:28:42;13.90;63.00
75719;DHT22;64340;48.534;-3.036;2023-01-31T08:31:13;13.90;63.00
75719;DHT22;64340;48.534;-3.036;2023-01-31T08:33:39;13.90;63.00
75719;DHT22;64340;48.534;-3.036;2023-01-31T08:36:16;13.90;63.00
75719;DHT22;64340;48.534;-3.036;2023-01-31T08:38:42;13.90;62.80
75719;DHT22;64340;48.534;-3.036;2023-01-31T08:41:09;13.90;63.00
75719;DHT22;64340;48.534;-3.036;2023-01-31T08:43:35;13.90;62.90
75719;DHT22;64340;48.534;-3.036;2023-01-31T08:46:03;13.90;63.00
75719;DHT22;64340;48.534;-3.036;2023-01-31T08:48:35;13.90;62.70
75719;DHT22;64340;48.534;-3.036;2023-01-31T08:51:02;13.90;62.90
75719;DHT22;64340;48.534;-3.036;2023-01-31T08:53:28;13.90;62.60
75719;DHT22;64340;48.534;-3.036;2023-01-31T08:56:01;13.90;63.00
75719;DHT22;64340;48.534;-3.036;2023-01-31T08:58:29;13.90;62.80
75719;DHT22;64340;48.534;-3.036;2023-01-31T09:01:00;13.90;63.00
75719;DHT22;64340;48.534;-3.036;2023-01-31T09:03:28;14.00;63.00
75719;DHT22;64340;48.534;-3.036;2023-01-31T09:05:58;14.00;63.20
75719;DHT22;64340;48.534;-3.036;2023-01-31T09:08:24;14.00;62.80
75719;DHT22;64340;48.534;-3.036;2023-01-31T09:10:51;14.00;63.10
75719;DHT22;64340;48.534;-3.036;2023-01-31T09:13:17;14.00;62.90
75719;DHT22;64340;48.534;-3.036;2023-01-31T09:15:43;14.00;63.00
75719;DHT22;64340;48.534;-3.036;2023-01-31T09:18:09;14.10;62.80
75719;DHT22;64340;48.534;-3.036;2023-01-31T09:20:34;14.10;62.90
75719;DHT22;64340;48.534;-3.036;2023-01-31T09:23:00;14.10;62.80
75719;DHT22;64340;48.534;-3.036;2023-01-31T09:25:26;14.10;62.50
75719;DHT22;64340;48.534;-3.036;2023-01-31T09:27:52;14.10;62.30
75719;DHT22;64340;48.534;-3.036;2023-01-31T09:30:18;14.20;62.10
75719;DHT22;64340;48.534;-3.036;2023-01-31T09:32:44;14.20;62.10
75719;DHT22;64340;48.534;-3.036;2023-01-31T09:35:11;14.20;62.00
75719;DHT22;64340;48.534;-3.036;2023-01-31T09:37:37;14.20;62.10
75719;DHT22;64340;48.534;-3.036;2023-01-31T09:40:04;14.20;62.00
75719;DHT22;64340;48.534;-3.036;2023-01-31T09:42:41;14.20;61.90
75719;DHT22;64340;48.534;-3.036;2023-01-31T09:45:14;14.30;61.80
75719;DHT22;64340;48.534;-3.036;2023-01-31T09:47:50;14.30;61.80
75719;DHT22;64340;48.534;-3.036;2023-01-31T09:50:18;14.30;61.80
75719;DHT22;64340;48.534;-3.036;2023-01-31T09:52:45;14.40;61.80
75719;DHT22;64340;48.534;-3.036;2023-01-31T09:55:53;14.40;61.90
75719;DHT22;64340;48.534;-3.036;2023-01-31T09:58:34;14.40;61.90
75719;DHT22;64340;48.534;-3.036;2023-01-31T10:01:26;14.40;62.00
75719;DHT22;64340;48.534;-3.036;2023-01-31T10:04:18;14.40;62.30
75719;DHT22;64340;48.534;-3.036;2023-01-31T10:07:10;14.30;62.30
75719;DHT22;64340;48.534;-3.036;2023-01-31T10:09:59;14.40;62.50
75719;DHT22;64340;48.534;-3.036;2023-01-31T10:12:36;14.30;62.20
75719;DHT22;64340;48.534;-3.036;2023-01-31T10:15:17;14.40;62.40
75719;DHT22;64340;48.534;-3.036;2023-01-31T10:17:50;14.40;62.50
75719;DHT22;64340;48.534;-3.036;2023-01-31T10:23:03;14.40;62.40
75719;DHT22;64340;48.534;-3.036;2023-01-31T10:25:51;14.40;62.40
75719;DHT22;64340;48.534;-3.036;2023-01-31T10:31:47;14.30;62.50
75719;DHT22;64340;48.534;-3.036;2023-01-31T10:40:00;14.30;62.50
75719;DHT22;64340;48.534;-3.036;2023-01-31T10:42:38;14.30;62.40
75719;DHT22;64340;48.534;-3.036;2023-01-31T10:47:40;14.30;62.40
75719;DHT22;64340;48.534;-3.036;2023-01-31T10:58:13;14.30;62.50
75719;DHT22;64340;48.534;-3.036;2023-01-31T11:00:39;14.30;62.30
75719;DHT22;64340;48.534;-3.036;2023-01-31T11:03:05;14.30;62.30
75719;DHT22;64340;48.534;-3.036;2023-01-31T11:05:31;14.30;62.20
75719;DHT22;64340;48.534;-3.036;2023-01-31T11:08:05;14.30;62.20
75719;DHT22;64340;48.534;-3.036;2023-01-31T11:10:50;14.30;62.30
75719;DHT22;64340;48.534;-3.036;2023-01-31T11:13:19;14.30;62.20
75719;DHT22;64340;48.534;-3.036;2023-01-31T11:15:46;14.30;62.20
75719;DHT22;64340;48.534;-3.036;2023-01-31T11:18:51;14.30;62.20
75719;DHT22;64340;48.534;-3.036;2023-01-31T11:21:25;14.30;62.20
75719;DHT22;64340;48.534;-3.036;2023-01-31T11:24:00;14.30;62.30
75719;DHT22;64340;48.534;-3.036;2023-01-31T11:26:30;14.30;62.20
75719;DHT22;64340;48.534;-3.036;2023-01-31T11:28:56;14.20;62.20
75719;DHT22;64340;48.534;-3.036;2023-01-31T11:31:35;14.20;62.10
75719;DHT22;64340;48.534;-3.036;2023-01-31T11:34:09;14.20;62.30
75719;DHT22;64340;48.534;-3.036;2023-01-31T11:36:43;14.20;62.20
75719;DHT22;64340;48.534;-3.036;2023-01-31T11:39:31;14.20;62.20
75719;DHT22;64340;48.534;-3.036;2023-01-31T11:42:15;14.20;62.30
75719;DHT22;64340;48.534;-3.036;2023-01-31T11:45:17;14.20;62.20
75719;DHT22;64340;48.534;-3.036;2023-01-31T11:47:51;14.20;62.30
75719;DHT22;64340;48.534;-3.036;2023-01-31T11:52:45;14.20;62.20
75719;DHT22;64340;48.534;-3.036;2023-01-31T11:55:15;14.20;62.10
75719;DHT22;64340;48.534;-3.036;2023-01-31T11:57:42;14.20;62.20
75719;DHT22;64340;48.534;-3.036;2023-01-31T12:00:22;14.20;62.20
75719;DHT22;64340;48.534;-3.036;2023-01-31T12:03:02;14.20;62.10
75719;DHT22;64340;48.534;-3.036;2023-01-31T12:05:40;14.20;62.10
75719;DHT22;64340;48.534;-3.036;2023-01-31T12:08:37;14.20;62.10
75719;DHT22;64340;48.534;-3.036;2023-01-31T12:11:05;14.20;62.10
75719;DHT22;64340;48.534;-3.036;2023-01-31T12:13:31;14.20;62.20
75719;DHT22;64340;48.534;-3.036;2023-01-31T12:15:58;14.20;62.20
75719;DHT22;64340;48.534;-3.036;2023-01-31T12:21:18;14.20;62.30
75719;DHT22;64340;48.534;-3.036;2023-01-31T12:31:47;14.10;62.40
75719;DHT22;64340;48.534;-3.036;2023-01-31T12:42:40;14.10;62.40
75719;DHT22;64340;48.534;-3.036;2023-01-31T12:45:46;14.10;62.40
75719;DHT22;64340;48.534;-3.036;2023-01-31T12:53:49;14.10;62.40
75719;DHT22;64340;48.534;-3.036;2023-01-31T13:04:49;14.10;62.40
75719;DHT22;64340;48.534;-3.036;2023-01-31T13:07:31;14.10;62.50
75719;DHT22;64340;48.534;-3.036;2023-01-31T13:10:01;14.10;62.50
75719;DHT22;64340;48.534;-3.036;2023-01-31T13:12:30;14.10;62.50
75719;DHT22;64340;48.534;-3.036;2023-01-31T13:15:04;14.10;62.50
75719;DHT22;64340;48.534;-3.036;2023-01-31T13:17:32;14.10;62.50
75719;DHT22;64340;48.534;-3.036;2023-01-31T13:22:40;14.00;62.50
75719;DHT22;64340;48.534;-3.036;2023-01-31T13:30:57;14.00;62.50
75719;DHT22;64340;48.534;-3.036;2023-01-31T13:33:59;14.00;62.50
75719;DHT22;64340;48.534;-3.036;2023-01-31T13:36:59;14.00;62.50
75719;DHT22;64340;48.534;-3.036;2023-01-31T13:39:22;14.00;62.50
75719;DHT22;64340;48.534;-3.036;2023-01-31T13:41:49;14.00;62.50
75719;DHT22;64340;48.534;-3.036;2023-01-31T13:44:15;14.00;62.60
75719;DHT22;64340;48.534;-3.036;2023-01-31T13:50:00;14.00;62.70
75719;DHT22;64340;48.534;-3.036;2023-01-31T13:52:38;14.00;62.70
75719;DHT22;64340;48.534;-3.036;2023-01-31T13:55:37;14.00;62.80
75719;DHT22;64340;48.534;-3.036;2023-01-31T13:58:17;14.00;62.80
75719;DHT22;64340;48.534;-3.036;2023-01-31T14:00:47;14.00;62.80
75719;DHT22;64340;48.534;-3.036;2023-01-31T14:03:17;14.00;62.70
75719;DHT22;64340;48.534;-3.036;2023-01-31T14:10:55;14.10;62.80
75719;DHT22;64340;48.534;-3.036;2023-01-31T14:15:57;14.10;62.80
75719;DHT22;64340;48.534;-3.036;2023-01-31T14:18:41;14.10;62.70
75719;DHT22;64340;48.534;-3.036;2023-01-31T14:24:00;14.10;63.00
75719;DHT22;64340;48.534;-3.036;2023-01-31T14:26:51;14.00;63.20
75719;DHT22;64340;48.534;-3.036;2023-01-31T14:29:23;14.10;63.10
75719;DHT22;64340;48.534;-3.036;2023-01-31T14:31:52;14.10;63.00
75719;DHT22;64340;48.534;-3.036;2023-01-31T14:34:21;14.20;62.90
75719;DHT22;64340;48.534;-3.036;2023-01-31T14:51:11;14.70;62.20
75719;DHT22;64340;48.534;-3.036;2023-01-31T14:56:53;14.90;62.20
75719;DHT22;64340;48.534;-3.036;2023-01-31T15:01:54;15.00;62.00
75719;DHT22;64340;48.534;-3.036;2023-01-31T15:04:23;15.00;62.10
75719;DHT22;64340;48.534;-3.036;2023-01-31T15:06:51;15.00;62.10
75719;DHT22;64340;48.534;-3.036;2023-01-31T15:09:36;15.00;62.00
75719;DHT22;64340;48.534;-3.036;2023-01-31T15:12:02;15.10;62.10
75719;DHT22;64340;48.534;-3.036;2023-01-31T15:14:41;15.20;61.90
75719;DHT22;64340;48.534;-3.036;2023-01-31T15:17:19;15.20;61.90
75719;DHT22;64340;48.534;-3.036;2023-01-31T15:19:51;15.30;62.00
75719;DHT22;64340;48.534;-3.036;2023-01-31T15:22:20;15.30;62.00
75719;DHT22;64340;48.534;-3.036;2023-01-31T15:24:50;15.30;62.00
75719;DHT22;64340;48.534;-3.036;2023-01-31T15:27:19;15.30;62.10
75719;DHT22;64340;48.534;-3.036;2023-01-31T15:30:03;15.30;62.00
75719;DHT22;64340;48.534;-3.036;2023-01-31T15:32:48;15.30;62.00
75719;DHT22;64340;48.534;-3.036;2023-01-31T15:35:31;15.30;62.10
75719;DHT22;64340;48.534;-3.036;2023-01-31T15:40:27;15.30;62.10
75719;DHT22;64340;48.534;-3.036;2023-01-31T15:42:54;15.30;62.10
75719;DHT22;64340;48.534;-3.036;2023-01-31T15:45:39;15.40;62.10
75719;DHT22;64340;48.534;-3.036;2023-01-31T15:48:12;15.30;62.20
75719;DHT22;64340;48.534;-3.036;2023-01-31T15:50:48;15.30;62.10
75719;DHT22;64340;48.534;-3.036;2023-01-31T15:53:15;15.40;62.20
75719;DHT22;64340;48.534;-3.036;2023-01-31T15:55:42;15.40;62.20
75719;DHT22;64340;48.534;-3.036;2023-01-31T15:58:17;15.40;62.20
75719;DHT22;64340;48.534;-3.036;2023-01-31T16:00:44;15.30;62.30
75719;DHT22;64340;48.534;-3.036;2023-01-31T16:03:20;15.30;62.50
75719;DHT22;64340;48.534;-3.036;2023-01-31T16:05:54;15.30;62.50
75719;DHT22;64340;48.534;-3.036;2023-01-31T16:11:07;15.30;62.50
75719;DHT22;64340;48.534;-3.036;2023-01-31T16:13:36;15.30;62.30
75719;DHT22;64340;48.534;-3.036;2023-01-31T16:16:04;15.40;62.30
75719;DHT22;64340;48.534;-3.036;2023-01-31T16:18:32;15.40;62.20
75719;DHT22;64340;48.534;-3.036;2023-01-31T16:21:20;15.50;62.00
75719;DHT22;64340;48.534;-3.036;2023-01-31T16:26:38;15.60;61.80
75719;DHT22;64340;48.534;-3.036;2023-01-31T16:29:12;15.80;61.60
75719;DHT22;64340;48.534;-3.036;2023-01-31T16:31:52;15.80;61.40
75719;DHT22;64340;48.534;-3.036;2023-01-31T16:39:42;16.10;61.10
75719;DHT22;64340;48.534;-3.036;2023-01-31T16:44:45;16.20;61.30
75719;DHT22;64340;48.534;-3.036;2023-01-31T16:52:48;16.40;62.20
75719;DHT22;64340;48.534;-3.036;2023-01-31T16:55:20;16.40;61.80
75719;DHT22;64340;48.534;-3.036;2023-01-31T16:57:46;16.40;61.70
75719;DHT22;64340;48.534;-3.036;2023-01-31T17:02:57;16.40;61.80
75719;DHT22;64340;48.534;-3.036;2023-01-31T17:05:49;16.40;61.80
75719;DHT22;64340;48.534;-3.036;2023-01-31T17:08:17;16.40;61.90
75719;DHT22;64340;48.534;-3.036;2023-01-31T17:10:45;16.50;61.80
75719;DHT22;64340;48.534;-3.036;2023-01-31T17:13:18;16.60;61.80
75719;DHT22;64340;48.534;-3.036;2023-01-31T17:15:46;16.60;62.00
75719;DHT22;64340;48.534;-3.036;2023-01-31T17:18:12;16.50;61.90
75719;DHT22;64340;48.534;-3.036;2023-01-31T17:20:40;16.50;62.10
75719;DHT22;64340;48.534;-3.036;2023-01-31T17:23:08;16.50;62.00
75719;DHT22;64340;48.534;-3.036;2023-01-31T17:25:35;16.50;62.20
75719;DHT22;64340;48.534;-3.036;2023-01-31T17:28:03;16.50;62.20
75719;DHT22;64340;48.534;-3.036;2023-01-31T17:30:30;16.40;62.30
75719;DHT22;64340;48.534;-3.036;2023-01-31T17:32:59;16.50;62.50
75719;DHT22;64340;48.534;-3.036;2023-01-31T17:35:27;16.50;62.30
75719;DHT22;64340;48.534;-3.036;2023-01-31T17:37:54;16.40;62.30
75719;DHT22;64340;48.534;-3.036;2023-01-31T17:40:20;16.50;62.30
75719;DHT22;64340;48.534;-3.036;2023-01-31T17:42:52;16.50;62.20
75719;DHT22;64340;48.534;-3.036;2023-01-31T17:45:18;16.50;62.20
75719;DHT22;64340;48.534;-3.036;2023-01-31T17:47:45;16.60;62.10
75719;DHT22;64340;48.534;-3.036;2023-01-31T17:52:45;16.60;62.10
75719;DHT22;64340;48.534;-3.036;2023-01-31T17:55:13;16.60;62.10
75719;DHT22;64340;48.534;-3.036;2023-01-31T17:57:40;16.70;62.00
75719;DHT22;64340;48.534;-3.036;2023-01-31T18:00:11;16.70;62.00
75719;DHT22;64340;48.534;-3.036;2023-01-31T18:02:38;16.70;61.90
75719;DHT22;64340;48.534;-3.036;2023-01-31T18:05:11;16.70;61.90
75719;DHT22;64340;48.534;-3.036;2023-01-31T18:07:40;16.70;61.90
75719;DHT22;64340;48.534;-3.036;2023-01-31T18:10:07;16.70;62.00
75719;DHT22;64340;48.534;-3.036;2023-01-31T18:12:34;16.80;62.00
75719;DHT22;64340;48.534;-3.036;2023-01-31T18:15:00;16.80;61.80
75719;DHT22;64340;48.534;-3.036;2023-01-31T18:17:32;16.80;61.70